Plan B — ZGCC2 — position and weather

sailwx.info

Track history (hours):
 
Tides and Currents Weather Stations Pressure Air Temp Water Temp Dewpoint Dewpoint Depression Visibility Wind Speed Wind Dir Waves Ship Positions

Plan B

Last reported at 2016-Sep-29 07:31 UTC. Time now 2016-Dec-04 20:25 UTC.
Position N 54°19' E 009°42'.
Warning: this ship's position is months out of date.

Length 73 m; draft 3.6 m.

Type: Pleasure craft. MMSI: 319618000.

Date/timePositionNaut miles runAvg speedWind from/ knotsBaromVisibWave heightAir tempDewpointWater temp
2016-Sep-29 07:31N 54°19' E 009°42'0 0.0
2016-Sep-29 00:33N 54°19' E 009°42'0 0.0
2016-Sep-28 21:33N 54°19' E 009°42'34 6.8
2016-Sep-28 16:33N 53°53' E 009°04'1010.0
2016-Sep-28 15:33N 53°50' E 008°48'3712.2
2016-Sep-28 12:33N 53°57' E 007°47'6115.2
2016-Sep-28 08:34N 53°41' E 006°07'7615.2
2016-Sep-28 03:33N 52°59' E 004°21'1616.3
2016-Sep-28 02:33N 52°45' E 004°07'1716.7
2016-Sep-28 01:33N 52°33' E 003°48'10016.7
2016-Sep-27 19:34N 51°16' E 002°05'  
2016-Sep-25 07:33N 39°21' W 009°51'4715.7
2016-Sep-25 04:33N 38°34' W 009°48'6815.4
2016-Sep-25 00:09N 37°27' W 009°29'2615.9
2016-Sep-24 22:31N 37°02' W 009°22'4314.5
2016-Sep-24 19:31N 36°34' W 008°40'1515.6
2016-Sep-24 18:33N 36°28' W 008°23'3215.8
2016-Sep-24 16:33N 36°11' W 007°50'25011.9
2016-Sep-23 19:33N 36°22' W 002°40'3815.7
2016-Sep-23 17:10N 36°28' W 001°54'5715.7
2016-Sep-23 13:33N 36°40' W 000°45'6516.1
2016-Sep-23 09:30N 36°54' E 000°35'9114.9
2016-Sep-23 03:23N 37°14' E 002°26'1213.8
2016-Sep-23 02:33N 37°16' E 002°40'1312.8
2016-Sep-23 01:32N 37°19' E 002°56'1414.2
2016-Sep-23 00:31N 37°22' E 003°14'48815.3
2016-Sep-21 16:33N 38°20' E 013°28'10114.4
2016-Sep-21 09:33N 38°19' E 015°37'1111.2
2016-Sep-21 08:33N 38°07' E 015°36'  
Track history (hours):
 
Tides and Currents Weather Stations Pressure Air Temp Water Temp Dewpoint Dewpoint Depression Visibility Wind Speed Wind Dir Waves Ship Positions

Plan B

Last reported at 2016-Sep-29 07:31 UTC. Time now 2016-Dec-04 20:25 UTC.
Position N 54°19' E 009°42'.
Warning: this ship's position is months out of date.

Length 73 m; draft 3.6 m.

Type: Pleasure craft. MMSI: 319618000.

Date/timePositionNaut miles runAvg speedWind from/ knotsBaromVisibWave heightAir tempDewpointWater temp
2016-Sep-29 07:31N 54°19' E 009°42'0 0.0
2016-Sep-29 00:33N 54°19' E 009°42'0 0.0
2016-Sep-28 21:33N 54°19' E 009°42'34 6.8
2016-Sep-28 16:33N 53°53' E 009°04'1010.0
2016-Sep-28 15:33N 53°50' E 008°48'3712.2
2016-Sep-28 12:33N 53°57' E 007°47'6115.2
2016-Sep-28 08:34N 53°41' E 006°07'7615.2
2016-Sep-28 03:33N 52°59' E 004°21'1616.3
2016-Sep-28 02:33N 52°45' E 004°07'1716.7
2016-Sep-28 01:33N 52°33' E 003°48'10016.7
2016-Sep-27 19:34N 51°16' E 002°05'  
2016-Sep-25 07:33N 39°21' W 009°51'4715.7
2016-Sep-25 04:33N 38°34' W 009°48'6815.4
2016-Sep-25 00:09N 37°27' W 009°29'2615.9
2016-Sep-24 22:31N 37°02' W 009°22'4314.5
2016-Sep-24 19:31N 36°34' W 008°40'1515.6
2016-Sep-24 18:33N 36°28' W 008°23'3215.8
2016-Sep-24 16:33N 36°11' W 007°50'25011.9
2016-Sep-23 19:33N 36°22' W 002°40'3815.7
2016-Sep-23 17:10N 36°28' W 001°54'5715.7
2016-Sep-23 13:33N 36°40' W 000°45'6516.1
2016-Sep-23 09:30N 36°54' E 000°35'9114.9
2016-Sep-23 03:23N 37°14' E 002°26'1213.8
2016-Sep-23 02:33N 37°16' E 002°40'1312.8
2016-Sep-23 01:32N 37°19' E 002°56'1414.2
2016-Sep-23 00:31N 37°22' E 003°14'48815.3
2016-Sep-21 16:33N 38°20' E 013°28'10114.4
2016-Sep-21 09:33N 38°19' E 015°37'1111.2
2016-Sep-21 08:33N 38°07' E 015°36'  

Dump ship's entire track history